sensor_id;sensor_type;location;lat;lon;timestamp;pressure;altitude;pressure_sealevel;temperature;humidity
34674;BME280;20879;55.668;37.858;2023-04-09T00:00:15;100853.78;;;4.67;67.15
34674;BME280;20879;55.668;37.858;2023-04-09T00:02:44;100843.47;;;4.65;67.24
34674;BME280;20879;55.668;37.858;2023-04-09T00:05:20;100846.00;;;4.64;67.85
34674;BME280;20879;55.668;37.858;2023-04-09T00:07:51;100843.53;;;4.67;68.00
34674;BME280;20879;55.668;37.858;2023-04-09T00:10:26;100840.13;;;4.68;68.63
34674;BME280;20879;55.668;37.858;2023-04-09T00:13:00;100846.00;;;4.64;68.07
34674;BME280;20879;55.668;37.858;2023-04-09T00:15:29;100849.50;;;4.66;67.74
34674;BME280;20879;55.668;37.858;2023-04-09T00:17:59;100836.66;;;4.66;67.97
34674;BME280;20879;55.668;37.858;2023-04-09T00:20:28;100842.81;;;4.72;67.98
34674;BME280;20879;55.668;37.858;2023-04-09T00:23:00;100846.31;;;4.75;68.00
34674;BME280;20879;55.668;37.858;2023-04-09T00:25:29;100830.75;;;4.70;67.91
34674;BME280;20879;55.668;37.858;2023-04-09T00:27:59;100854.94;;;4.78;67.55
34674;BME280;20879;55.668;37.858;2023-04-09T00:30:28;100848.22;;;4.82;67.35
34674;BME280;20879;55.668;37.858;2023-04-09T00:32:57;100852.53;;;4.84;67.34
34674;BME280;20879;55.668;37.858;2023-04-09T00:35:27;100841.38;;;4.82;67.71
34674;BME280;20879;55.668;37.858;2023-04-09T00:37:57;100841.28;;;4.79;67.70
34674;BME280;20879;55.668;37.858;2023-04-09T00:40:34;100844.66;;;4.77;69.58
34674;BME280;20879;55.668;37.858;2023-04-09T00:43:04;100851.38;;;4.71;68.72
34674;BME280;20879;55.668;37.858;2023-04-09T00:45:33;100849.56;;;4.69;68.90
34674;BME280;20879;55.668;37.858;2023-04-09T00:48:03;100850.44;;;4.69;69.42
34674;BME280;20879;55.668;37.858;2023-04-09T00:50:32;100838.38;;;4.67;69.52
34674;BME280;20879;55.668;37.858;2023-04-09T00:53:02;100843.34;;;4.61;69.65
34674;BME280;20879;55.668;37.858;2023-04-09T00:55:35;100840.63;;;4.54;70.43
34674;BME280;20879;55.668;37.858;2023-04-09T00:58:04;100853.53;;;4.58;70.16
34674;BME280;20879;55.668;37.858;2023-04-09T01:00:34;100840.66;;;4.56;70.13
34674;BME280;20879;55.668;37.858;2023-04-09T01:03:04;100840.72;;;4.58;70.54
34674;BME280;20879;55.668;37.858;2023-04-09T01:05:41;100839.16;;;4.63;70.59
34674;BME280;20879;55.668;37.858;2023-04-09T01:08:18;100834.75;;;4.59;70.79
34674;BME280;20879;55.668;37.858;2023-04-09T01:11:13;100845.16;;;4.63;71.29
34674;BME280;20879;55.668;37.858;2023-04-09T01:13:48;100850.19;;;4.60;70.46
34674;BME280;20879;55.668;37.858;2023-04-09T01:16:22;100838.88;;;4.53;70.00
34674;BME280;20879;55.668;37.858;2023-04-09T01:18:56;100843.28;;;4.58;70.50
34674;BME280;20879;55.668;37.858;2023-04-09T01:21:29;100841.50;;;4.55;70.18
34674;BME280;20879;55.668;37.858;2023-04-09T01:24:13;100818.75;;;4.35;70.57
34674;BME280;20879;55.668;37.858;2023-04-09T01:26:58;100855.25;;;4.57;70.21
34674;BME280;20879;55.668;37.858;2023-04-09T01:29:56;100847.34;;;4.51;70.10
34674;BME280;20879;55.668;37.858;2023-04-09T01:32:26;100851.56;;;4.47;70.21
34674;BME280;20879;55.668;37.858;2023-04-09T01:34:58;100849.72;;;4.43;70.70
34674;BME280;20879;55.668;37.858;2023-04-09T01:37:29;100851.34;;;4.40;70.40
34674;BME280;20879;55.668;37.858;2023-04-09T01:39:59;100847.88;;;4.39;70.81
34674;BME280;20879;55.668;37.858;2023-04-09T01:42:31;100850.44;;;4.39;71.00
34674;BME280;20879;55.668;37.858;2023-04-09T01:45:04;100833.91;;;4.28;71.33
34674;BME280;20879;55.668;37.858;2023-04-09T01:47:39;100853.09;;;4.42;70.92
34674;BME280;20879;55.668;37.858;2023-04-09T01:50:19;100849.63;;;4.40;71.47
34674;BME280;20879;55.668;37.858;2023-04-09T01:52:54;100847.94;;;4.41;70.74
34674;BME280;20879;55.668;37.858;2023-04-09T01:55:23;100856.63;;;4.46;70.49
34674;BME280;20879;55.668;37.858;2023-04-09T01:57:52;100849.88;;;4.49;70.40
34674;BME280;20879;55.668;37.858;2023-04-09T02:00:28;100853.34;;;4.50;70.91
34674;BME280;20879;55.668;37.858;2023-04-09T02:03:05;100847.22;;;4.46;70.97
34674;BME280;20879;55.668;37.858;2023-04-09T02:05:39;100848.81;;;4.41;71.07
34674;BME280;20879;55.668;37.858;2023-04-09T02:08:22;100844.47;;;4.38;70.90
34674;BME280;20879;55.668;37.858;2023-04-09T02:10:57;100845.31;;;4.39;71.20
34674;BME280;20879;55.668;37.858;2023-04-09T02:13:28;100852.16;;;4.38;70.76
34674;BME280;20879;55.668;37.858;2023-04-09T02:16:06;100846.94;;;4.35;71.10
34674;BME280;20879;55.668;37.858;2023-04-09T02:18:37;100843.53;;;4.35;70.93
34674;BME280;20879;55.668;37.858;2023-04-09T02:21:06;100847.06;;;4.40;71.24
34674;BME280;20879;55.668;37.858;2023-04-09T02:23:41;100848.81;;;4.41;70.80
34674;BME280;20879;55.668;37.858;2023-04-09T02:26:11;100848.72;;;4.38;71.28
34674;BME280;20879;55.668;37.858;2023-04-09T02:28:40;100843.53;;;4.35;71.31
34674;BME280;20879;55.668;37.858;2023-04-09T02:31:22;100844.38;;;4.35;72.17
34674;BME280;20879;55.668;37.858;2023-04-09T02:33:52;100849.50;;;4.35;71.87
34674;BME280;20879;55.668;37.858;2023-04-09T02:36:32;100844.34;;;4.34;71.88
34674;BME280;20879;55.668;37.858;2023-04-09T02:39:01;100846.09;;;4.35;72.07
34674;BME280;20879;55.668;37.858;2023-04-09T02:41:30;100845.25;;;4.36;72.26
34674;BME280;20879;55.668;37.858;2023-04-09T02:44:00;100837.50;;;4.34;72.32
34674;BME280;20879;55.668;37.858;2023-04-09T02:46:31;100842.03;;;4.43;72.14
34674;BME280;20879;55.668;37.858;2023-04-09T02:49:06;100841.31;;;4.49;72.78
34674;BME280;20879;55.668;37.858;2023-04-09T02:51:36;100835.91;;;4.38;72.34
34674;BME280;20879;55.668;37.858;2023-04-09T02:54:05;100831.75;;;4.43;72.07
34674;BME280;20879;55.668;37.858;2023-04-09T02:56:34;100849.06;;;4.50;72.01
34674;BME280;20879;55.668;37.858;2023-04-09T02:59:04;100844.91;;;4.54;72.18
34674;BME280;20879;55.668;37.858;2023-04-09T03:01:41;100839.84;;;4.57;72.12
34674;BME280;20879;55.668;37.858;2023-04-09T03:04:11;100846.84;;;4.63;72.01
34674;BME280;20879;55.668;37.858;2023-04-09T03:06:41;100846.94;;;4.66;71.62
34674;BME280;20879;55.668;37.858;2023-04-09T03:09:10;100835.66;;;4.61;72.07
34674;BME280;20879;55.668;37.858;2023-04-09T03:11:39;100840.22;;;4.71;72.12
34674;BME280;20879;55.668;37.858;2023-04-09T03:14:09;100851.53;;;4.78;72.09
34674;BME280;20879;55.668;37.858;2023-04-09T03:16:40;100845.69;;;4.83;71.66
34674;BME280;20879;55.668;37.858;2023-04-09T03:19:09;100849.41;;;4.96;71.19
34674;BME280;20879;55.668;37.858;2023-04-09T03:21:38;100849.63;;;5.04;71.13
34674;BME280;20879;55.668;37.858;2023-04-09T03:24:08;100848.06;;;5.11;70.69
34674;BME280;20879;55.668;37.858;2023-04-09T03:26:42;100845.63;;;5.15;70.74
34674;BME280;20879;55.668;37.858;2023-04-09T03:29:14;100848.28;;;5.18;70.95
34674;BME280;20879;55.668;37.858;2023-04-09T03:31:45;100852.50;;;5.16;71.25
34674;BME280;20879;55.668;37.858;2023-04-09T03:34:21;100843.97;;;5.17;71.17
34674;BME280;20879;55.668;37.858;2023-04-09T03:36:54;100851.59;;;5.14;70.90
34674;BME280;20879;55.668;37.858;2023-04-09T03:39:27;100856.69;;;5.13;71.22
34674;BME280;20879;55.668;37.858;2023-04-09T03:41:58;100842.75;;;5.03;71.65
34674;BME280;20879;55.668;37.858;2023-04-09T03:44:32;100853.25;;;5.12;71.67
34674;BME280;20879;55.668;37.858;2023-04-09T03:47:20;100862.00;;;5.19;71.62
34674;BME280;20879;55.668;37.858;2023-04-09T03:49:50;100850.84;;;5.18;71.39
34674;BME280;20879;55.668;37.858;2023-04-09T03:52:24;100854.38;;;5.23;71.06
34674;BME280;20879;55.668;37.858;2023-04-09T03:55:02;100836.34;;;5.20;71.22
34674;BME280;20879;55.668;37.858;2023-04-09T03:57:32;100848.75;;;5.38;70.93
34674;BME280;20879;55.668;37.858;2023-04-09T04:00:03;100853.97;;;5.41;70.57
34674;BME280;20879;55.668;37.858;2023-04-09T04:02:51;100849.06;;;5.51;70.07
34674;BME280;20879;55.668;37.858;2023-04-09T04:05:41;100841.16;;;5.43;70.15
34674;BME280;20879;55.668;37.858;2023-04-09T04:08:14;100851.66;;;5.52;69.29
34674;BME280;20879;55.668;37.858;2023-04-09T04:10:43;100855.84;;;5.49;69.02
34674;BME280;20879;55.668;37.858;2023-04-09T04:13:19;100842.97;;;5.47;69.38
34674;BME280;20879;55.668;37.858;2023-04-09T04:15:54;100852.47;;;5.50;69.43
34674;BME280;20879;55.668;37.858;2023-04-09T04:18:25;100837.91;;;5.50;68.78
34674;BME280;20879;55.668;37.858;2023-04-09T04:21:00;100847.69;;;5.65;68.78
34674;BME280;20879;55.668;37.858;2023-04-09T04:23:34;100844.34;;;5.69;68.45
34674;BME280;20879;55.668;37.858;2023-04-09T04:26:16;100849.72;;;5.80;68.33
34674;BME280;20879;55.668;37.858;2023-04-09T04:28:52;100846.59;;;5.93;67.55
34674;BME280;20879;55.668;37.858;2023-04-09T04:31:35;100851.13;;;6.04;67.53
34674;BME280;20879;55.668;37.858;2023-04-09T04:34:07;100842.78;;;6.14;67.04
34674;BME280;20879;55.668;37.858;2023-04-09T04:36:45;100840.41;;;6.25;66.91
34674;BME280;20879;55.668;37.858;2023-04-09T04:39:16;100839.84;;;6.40;66.93
34674;BME280;20879;55.668;37.858;2023-04-09T04:41:59;100840.97;;;6.53;66.92
34674;BME280;20879;55.668;37.858;2023-04-09T04:44:29;100839.66;;;6.75;66.43
34674;BME280;20879;55.668;37.858;2023-04-09T04:47:10;100840.63;;;6.80;66.04
34674;BME280;20879;55.668;37.858;2023-04-09T04:49:46;100840.72;;;6.86;65.18
34674;BME280;20879;55.668;37.858;2023-04-09T04:52:17;100835.69;;;6.92;65.18
34674;BME280;20879;55.668;37.858;2023-04-09T04:54:53;100841.81;;;6.97;65.03
34674;BME280;20879;55.668;37.858;2023-04-09T04:57:24;100840.09;;;6.99;64.80
34674;BME280;20879;55.668;37.858;2023-04-09T04:59:54;100838.09;;;6.81;64.72
34674;BME280;20879;55.668;37.858;2023-04-09T05:02:23;100842.31;;;6.78;64.85
34674;BME280;20879;55.668;37.858;2023-04-09T05:05:15;100843.22;;;6.81;64.96
34674;BME280;20879;55.668;37.858;2023-04-09T05:07:50;100834.53;;;6.76;64.97
34674;BME280;20879;55.668;37.858;2023-04-09T05:10:20;100834.75;;;6.87;64.99
34674;BME280;20879;55.668;37.858;2023-04-09T05:12:56;100839.19;;;6.94;64.65
34674;BME280;20879;55.668;37.858;2023-04-09T05:15:40;100841.13;;;7.08;64.29
34674;BME280;20879;55.668;37.858;2023-04-09T05:18:09;100842.25;;;7.24;64.14
34674;BME280;20879;55.668;37.858;2023-04-09T05:20:41;100844.13;;;7.34;63.74
34674;BME280;20879;55.668;37.858;2023-04-09T05:23:10;100833.97;;;7.43;63.32
34674;BME280;20879;55.668;37.858;2023-04-09T05:25:49;100845.31;;;7.56;63.11
34674;BME280;20879;55.668;37.858;2023-04-09T05:28:32;100839.50;;;7.68;63.08
34674;BME280;20879;55.668;37.858;2023-04-09T05:31:08;100841.44;;;7.86;62.65
34674;BME280;20879;55.668;37.858;2023-04-09T05:33:44;100843.44;;;8.05;62.42
34674;BME280;20879;55.668;37.858;2023-04-09T05:36:24;100844.66;;;8.35;61.59
34674;BME280;20879;55.668;37.858;2023-04-09T05:38:53;100850.25;;;8.69;60.93
34674;BME280;20879;55.668;37.858;2023-04-09T05:41:23;100846.16;;;8.91;59.94
34674;BME280;20879;55.668;37.858;2023-04-09T05:44:13;100845.50;;;9.13;59.54
34674;BME280;20879;55.668;37.858;2023-04-09T05:46:43;100844.75;;;9.26;59.03
34674;BME280;20879;55.668;37.858;2023-04-09T05:49:15;100841.44;;;9.44;58.84
34674;BME280;20879;55.668;37.858;2023-04-09T05:51:55;100843.25;;;9.56;57.94
34674;BME280;20879;55.668;37.858;2023-04-09T05:54:35;100830.28;;;9.48;57.84
34674;BME280;20879;55.668;37.858;2023-04-09T05:57:07;100852.00;;;9.76;58.08
34674;BME280;20879;55.668;37.858;2023-04-09T05:59:46;100852.13;;;9.98;57.04
34674;BME280;20879;55.668;37.858;2023-04-09T06:02:22;100847.97;;;10.28;56.93
34674;BME280;20879;55.668;37.858;2023-04-09T06:04:53;100855.00;;;10.57;55.98
34674;BME280;20879;55.668;37.858;2023-04-09T06:07:37;100846.44;;;10.82;54.72
34674;BME280;20879;55.668;37.858;2023-04-09T06:10:07;100845.59;;;11.02;54.07
34674;BME280;20879;55.668;37.858;2023-04-09T06:12:38;100858.59;;;11.44;53.85
34674;BME280;20879;55.668;37.858;2023-04-09T06:15:09;100851.63;;;11.66;52.61
34674;BME280;20879;55.668;37.858;2023-04-09T06:17:44;100846.44;;;11.86;52.19
34674;BME280;20879;55.668;37.858;2023-04-09T06:20:14;100853.34;;;11.96;51.48
34674;BME280;20879;55.668;37.858;2023-04-09T06:22:45;100851.63;;;11.94;51.38
34674;BME280;20879;55.668;37.858;2023-04-09T06:25:21;100855.03;;;11.99;50.92
34674;BME280;20879;55.668;37.858;2023-04-09T06:27:51;100856.78;;;11.91;51.40
34674;BME280;20879;55.668;37.858;2023-04-09T06:30:27;100854.22;;;11.86;51.40
34674;BME280;20879;55.668;37.858;2023-04-09T06:32:57;100853.34;;;11.81;51.17
34674;BME280;20879;55.668;37.858;2023-04-09T06:35:26;100852.44;;;12.00;50.83
34674;BME280;20879;55.668;37.858;2023-04-09T06:38:08;100856.69;;;12.31;50.00
34674;BME280;20879;55.668;37.858;2023-04-09T06:40:43;100847.09;;;12.44;49.32
34674;BME280;20879;55.668;37.858;2023-04-09T06:43:13;100858.31;;;12.55;48.98
34674;BME280;20879;55.668;37.858;2023-04-09T06:45:48;100853.06;;;12.63;49.23
34674;BME280;20879;55.668;37.858;2023-04-09T06:48:17;100862.59;;;12.65;48.51
34674;BME280;20879;55.668;37.858;2023-04-09T06:50:46;100852.19;;;12.68;49.00
34674;BME280;20879;55.668;37.858;2023-04-09T06:53:17;100850.47;;;12.64;48.19
34674;BME280;20879;55.668;37.858;2023-04-09T06:55:52;100860.03;;;12.54;48.98
34674;BME280;20879;55.668;37.858;2023-04-09T06:58:23;100856.59;;;12.52;48.68
34674;BME280;20879;55.668;37.858;2023-04-09T07:00:52;100849.72;;;12.42;48.87
34674;BME280;20879;55.668;37.858;2023-04-09T07:03:22;100865.25;;;12.50;49.10
34674;BME280;20879;55.668;37.858;2023-04-09T07:05:53;100859.13;;;12.60;48.78
34674;BME280;20879;55.668;37.858;2023-04-09T07:08:36;100852.41;;;12.14;48.73
34674;BME280;20879;55.668;37.858;2023-04-09T07:11:07;100850.72;;;11.93;49.02
34674;BME280;20879;55.668;37.858;2023-04-09T07:13:36;100846.41;;;11.78;49.32
34674;BME280;20879;55.668;37.858;2023-04-09T07:16:12;100847.28;;;11.71;49.17
34674;BME280;20879;55.668;37.858;2023-04-09T07:18:41;100855.94;;;11.78;49.51
34674;BME280;20879;55.668;37.858;2023-04-09T07:21:11;100863.69;;;11.90;49.30
34674;BME280;20879;55.668;37.858;2023-04-09T07:23:42;100845.53;;;12.01;49.02
34674;BME280;20879;55.668;37.858;2023-04-09T07:26:11;100861.84;;;12.43;48.46
34674;BME280;20879;55.668;37.858;2023-04-09T07:28:46;100861.63;;;12.82;47.22
34674;BME280;20879;55.668;37.858;2023-04-09T07:31:15;100859.63;;;13.22;46.68
34674;BME280;20879;55.668;37.858;2023-04-09T07:33:45;100862.75;;;13.63;45.76
34674;BME280;20879;55.668;37.858;2023-04-09T07:36:14;100859.16;;;13.78;44.38
34674;BME280;20879;55.668;37.858;2023-04-09T07:38:45;100859.91;;;13.88;44.21
34674;BME280;20879;55.668;37.858;2023-04-09T07:41:14;100866.75;;;13.95;43.82
34674;BME280;20879;55.668;37.858;2023-04-09T07:43:44;100848.63;;;13.87;43.78
34674;BME280;20879;55.668;37.858;2023-04-09T07:46:17;100852.97;;;13.88;43.80
34674;BME280;20879;55.668;37.858;2023-04-09T07:48:47;100865.06;;;13.94;44.09
34674;BME280;20879;55.668;37.858;2023-04-09T07:51:36;100860.50;;;14.14;43.42
34674;BME280;20879;55.668;37.858;2023-04-09T07:54:17;100865.47;;;14.33;43.16
34674;BME280;20879;55.668;37.858;2023-04-09T07:56:47;100861.81;;;14.49;43.79
34674;BME280;20879;55.668;37.858;2023-04-09T07:59:23;100866.25;;;14.40;43.39
34674;BME280;20879;55.668;37.858;2023-04-09T08:01:53;100854.00;;;14.46;43.21
34674;BME280;20879;55.668;37.858;2023-04-09T08:04:23;100855.47;;;14.69;42.10
34674;BME280;20879;55.668;37.858;2023-04-09T08:06:53;100847.59;;;14.74;41.48
34674;BME280;20879;55.668;37.858;2023-04-09T08:12:19;100855.53;;;14.66;41.36
34674;BME280;20879;55.668;37.858;2023-04-09T08:14:48;100839.97;;;14.55;42.01
34674;BME280;20879;55.668;37.858;2023-04-09T08:17:18;100839.03;;;14.61;42.19
34674;BME280;20879;55.668;37.858;2023-04-09T08:19:47;100849.44;;;14.65;41.76
34674;BME280;20879;55.668;37.858;2023-04-09T08:22:22;100841.53;;;14.72;41.74
34674;BME280;20879;55.668;37.858;2023-04-09T08:24:55;100833.59;;;14.79;40.83
34674;BME280;20879;55.668;37.858;2023-04-09T08:27:38;100834.38;;;14.88;40.78
34674;BME280;20879;55.668;37.858;2023-04-09T08:30:12;100841.47;;;14.76;40.41
34674;BME280;20879;55.668;37.858;2023-04-09T08:32:44;100846.09;;;14.54;40.76
34674;BME280;20879;55.668;37.858;2023-04-09T08:35:14;100834.13;;;14.41;41.08
34674;BME280;20879;55.668;37.858;2023-04-09T08:37:43;100837.78;;;14.24;40.66
34674;BME280;20879;55.668;37.858;2023-04-09T08:40:15;100845.88;;;14.03;40.68
34674;BME280;20879;55.668;37.858;2023-04-09T08:43:09;100843.34;;;13.93;41.02
34674;BME280;20879;55.668;37.858;2023-04-09T08:45:42;100843.44;;;13.86;41.67
34674;BME280;20879;55.668;37.858;2023-04-09T08:48:13;100832.91;;;13.96;41.20
34674;BME280;20879;55.668;37.858;2023-04-09T08:50:59;100836.16;;;14.14;40.53
34674;BME280;20879;55.668;37.858;2023-04-09T08:53:35;100834.31;;;14.25;40.60
34674;BME280;20879;55.668;37.858;2023-04-09T08:56:06;100836.72;;;14.41;39.77
34674;BME280;20879;55.668;37.858;2023-04-09T08:58:43;100826.16;;;14.50;39.60
34674;BME280;20879;55.668;37.858;2023-04-09T09:01:19;100828.63;;;14.62;39.27
34674;BME280;20879;55.668;37.858;2023-04-09T09:04:01;100828.47;;;14.75;39.17
34674;BME280;20879;55.668;37.858;2023-04-09T09:06:32;100824.09;;;14.75;38.98
34674;BME280;20879;55.668;37.858;2023-04-09T09:09:06;100831.16;;;14.68;39.17
34674;BME280;20879;55.668;37.858;2023-04-09T09:11:39;100821.63;;;14.66;39.11
34674;BME280;20879;55.668;37.858;2023-04-09T09:14:10;100832.13;;;14.58;39.50
34674;BME280;20879;55.668;37.858;2023-04-09T09:16:41;100831.44;;;14.47;39.68
34674;BME280;20879;55.668;37.858;2023-04-09T09:19:29;100808.06;;;14.39;40.17
34674;BME280;20879;55.668;37.858;2023-04-09T09:22:02;100830.56;;;14.45;39.68
34674;BME280;20879;55.668;37.858;2023-04-09T09:24:32;100821.00;;;14.47;39.58
34674;BME280;20879;55.668;37.858;2023-04-09T09:27:03;100821.78;;;14.52;39.37
34674;BME280;20879;55.668;37.858;2023-04-09T09:29:40;100826.91;;;14.58;39.26
34674;BME280;20879;55.668;37.858;2023-04-09T09:35:03;100811.22;;;14.64;39.76
34674;BME280;20879;55.668;37.858;2023-04-09T09:37:32;100808.06;;;14.38;39.42
34674;BME280;20879;55.668;37.858;2023-04-09T09:40:08;100816.03;;;14.28;39.83
34674;BME280;20879;55.668;37.858;2023-04-09T09:42:53;100819.56;;;14.23;39.92
34674;BME280;20879;55.668;37.858;2023-04-09T09:45:24;100807.53;;;14.12;40.03
34674;BME280;20879;55.668;37.858;2023-04-09T09:47:53;100803.31;;;14.04;39.60
34674;BME280;20879;55.668;37.858;2023-04-09T09:50:30;100806.78;;;14.06;39.52
34674;BME280;20879;55.668;37.858;2023-04-09T09:53:02;100792.94;;;14.01;39.57
34674;BME280;20879;55.668;37.858;2023-04-09T09:55:38;100807.63;;;14.06;39.52
34674;BME280;20879;55.668;37.858;2023-04-09T09:58:15;100811.13;;;14.04;39.19
34674;BME280;20879;55.668;37.858;2023-04-09T10:00:46;100803.31;;;14.04;39.68
34674;BME280;20879;55.668;37.858;2023-04-09T10:03:20;100806.75;;;14.07;39.24
34674;BME280;20879;55.668;37.858;2023-04-09T10:05:51;100787.63;;;14.08;39.57
34674;BME280;20879;55.668;37.858;2023-04-09T10:08:22;100798.88;;;14.12;39.19
34674;BME280;20879;55.668;37.858;2023-04-09T10:13:47;100795.28;;;14.22;39.13
34674;BME280;20879;55.668;37.858;2023-04-09T10:16:22;100790.78;;;14.30;39.24
34674;BME280;20879;55.668;37.858;2023-04-09T10:18:53;100787.53;;;14.16;39.11
34674;BME280;20879;55.668;37.858;2023-04-09T10:21:31;100790.16;;;14.16;39.20
34674;BME280;20879;55.668;37.858;2023-04-09T10:24:10;100790.16;;;14.14;38.91
34674;BME280;20879;55.668;37.858;2023-04-09T10:26:40;100787.63;;;14.08;39.07
34674;BME280;20879;55.668;37.858;2023-04-09T10:29:14;100781.41;;;14.22;38.75
34674;BME280;20879;55.668;37.858;2023-04-09T10:31:53;100783.75;;;14.39;38.61
34674;BME280;20879;55.668;37.858;2023-04-09T10:34:28;100770.69;;;14.40;38.27
34674;BME280;20879;55.668;37.858;2023-04-09T10:36:59;100787.22;;;14.41;38.33
34674;BME280;20879;55.668;37.858;2023-04-09T10:39:30;100782.00;;;14.41;38.20
34674;BME280;20879;55.668;37.858;2023-04-09T10:42:12;100777.50;;;14.50;37.60
34674;BME280;20879;55.668;37.858;2023-04-09T10:44:44;100782.41;;;14.74;37.50
34674;BME280;20879;55.668;37.858;2023-04-09T10:47:14;100778.25;;;15.15;38.07
34674;BME280;20879;55.668;37.858;2023-04-09T10:50:13;100780.09;;;15.60;36.12
34674;BME280;20879;55.668;37.858;2023-04-09T10:52:44;100774.50;;;15.78;35.94
34674;BME280;20879;55.668;37.858;2023-04-09T10:55:34;100772.97;;;16.12;35.11
34674;BME280;20879;55.668;37.858;2023-04-09T10:58:05;100768.16;;;16.32;35.12
34674;BME280;20879;55.668;37.858;2023-04-09T11:00:48;100765.22;;;16.48;34.48
34674;BME280;20879;55.668;37.858;2023-04-09T11:03:23;100769.03;;;16.70;34.60
34674;BME280;20879;55.668;37.858;2023-04-09T11:05:58;100770.47;;;16.84;34.34
34674;BME280;20879;55.668;37.858;2023-04-09T11:08:28;100766.31;;;16.75;33.98
34674;BME280;20879;55.668;37.858;2023-04-09T11:11:05;100772.50;;;16.72;34.00
34674;BME280;20879;55.668;37.858;2023-04-09T11:13:34;100766.09;;;16.84;33.78
34674;BME280;20879;55.668;37.858;2023-04-09T11:16:06;100757.81;;;17.04;32.80
34674;BME280;20879;55.668;37.858;2023-04-09T11:18:40;100766.94;;;17.22;32.98
34674;BME280;20879;55.668;37.858;2023-04-09T11:21:11;100760.91;;;17.19;32.54
34674;BME280;20879;55.668;37.858;2023-04-09T11:23:50;100753.03;;;17.19;33.24
34674;BME280;20879;55.668;37.858;2023-04-09T11:26:22;100746.19;;;17.15;33.03
34674;BME280;20879;55.668;37.858;2023-04-09T11:28:55;100758.78;;;17.00;33.11
34674;BME280;20879;55.668;37.858;2023-04-09T11:31:30;100759.81;;;16.55;32.76
34674;BME280;20879;55.668;37.858;2023-04-09T11:34:03;100746.53;;;16.27;33.43
34674;BME280;20879;55.668;37.858;2023-04-09T11:36:34;100752.59;;;16.28;33.78
34674;BME280;20879;55.668;37.858;2023-04-09T11:39:03;100739.66;;;16.21;34.11
34674;BME280;20879;55.668;37.858;2023-04-09T11:41:33;100733.84;;;16.08;33.93
34674;BME280;20879;55.668;37.858;2023-04-09T11:44:02;100747.13;;;15.99;33.97
34674;BME280;20879;55.668;37.858;2023-04-09T11:46:34;100740.31;;;15.47;34.68
34674;BME280;20879;55.668;37.858;2023-04-09T11:49:09;100746.47;;;15.43;34.70
34674;BME280;20879;55.668;37.858;2023-04-09T11:51:39;100734.47;;;15.32;35.18
34674;BME280;20879;55.668;37.858;2023-04-09T11:54:10;100735.53;;;15.22;35.08
34674;BME280;20879;55.668;37.858;2023-04-09T11:56:40;100740.88;;;15.16;35.40
34674;BME280;20879;55.668;37.858;2023-04-09T11:59:09;100729.88;;;14.98;35.50
34674;BME280;20879;55.668;37.858;2023-04-09T12:01:48;100739.63;;;14.85;35.69
34674;BME280;20879;55.668;37.858;2023-04-09T12:04:23;100727.72;;;14.71;35.51
34674;BME280;20879;55.668;37.858;2023-04-09T12:06:55;100707.16;;;14.49;36.03
34674;BME280;20879;55.668;37.858;2023-04-09T12:09:31;100728.94;;;14.45;36.50
34674;BME280;20879;55.668;37.858;2023-04-09T12:12:00;100728.16;;;14.40;36.80
34674;BME280;20879;55.668;37.858;2023-04-09T12:14:29;100728.91;;;14.46;36.51
34674;BME280;20879;55.668;37.858;2023-04-09T12:17:07;100733.19;;;14.52;36.16
34674;BME280;20879;55.668;37.858;2023-04-09T12:19:36;100721.06;;;14.51;36.40
34674;BME280;20879;55.668;37.858;2023-04-09T12:22:06;100726.13;;;14.60;36.07
34674;BME280;20879;55.668;37.858;2023-04-09T12:24:35;100719.97;;;14.66;36.00
34674;BME280;20879;55.668;37.858;2023-04-09T12:27:04;100726.03;;;14.66;35.98
34674;BME280;20879;55.668;37.858;2023-04-09T12:29:33;100701.09;;;14.48;35.49
34674;BME280;20879;55.668;37.858;2023-04-09T12:32:05;100716.47;;;14.67;35.66
34674;BME280;20879;55.668;37.858;2023-04-09T12:34:34;100722.63;;;14.64;35.71
34674;BME280;20879;55.668;37.858;2023-04-09T12:37:03;100730.75;;;14.41;35.95
34674;BME280;20879;55.668;37.858;2023-04-09T12:42:17;100723.91;;;14.32;36.44
34674;BME280;20879;55.668;37.858;2023-04-09T12:52:21;100729.56;;;14.02;36.84
34674;BME280;20879;55.668;37.858;2023-04-09T12:54:56;100719.31;;;13.88;36.94
34674;BME280;20879;55.668;37.858;2023-04-09T12:57:31;100724.53;;;13.86;37.18
34674;BME280;20879;55.668;37.858;2023-04-09T13:00:00;100715.59;;;13.36;37.84
34674;BME280;20879;55.668;37.858;2023-04-09T13:02:31;100728.72;;;13.19;38.49
34674;BME280;20879;55.668;37.858;2023-04-09T13:08:05;100727.88;;;13.18;38.71
34674;BME280;20879;55.668;37.858;2023-04-09T13:10:48;100730.38;;;13.27;38.97
34674;BME280;20879;55.668;37.858;2023-04-09T13:13:17;100722.56;;;13.29;38.43
34674;BME280;20879;55.668;37.858;2023-04-09T13:15:47;100728.63;;;13.34;38.42
34674;BME280;20879;55.668;37.858;2023-04-09T13:18:16;100720.75;;;13.39;38.71
34674;BME280;20879;55.668;37.858;2023-04-09T13:20:51;100704.38;;;13.26;38.24
34674;BME280;20879;55.668;37.858;2023-04-09T13:23:24;100719.72;;;13.54;38.73
34674;BME280;20879;55.668;37.858;2023-04-09T13:25:53;100716.94;;;13.71;38.51
34674;BME280;20879;55.668;37.858;2023-04-09T13:28:23;100721.00;;;13.92;37.96
34674;BME280;20879;55.668;37.858;2023-04-09T13:31:16;100714.63;;;14.16;37.87
34674;BME280;20879;55.668;37.858;2023-04-09T13:33:46;100711.00;;;14.26;37.66
34674;BME280;20879;55.668;37.858;2023-04-09T13:36:15;100710.81;;;14.39;37.27
34674;BME280;20879;55.668;37.858;2023-04-09T13:38:51;100720.22;;;14.47;36.89